Westlake, Ohio
Current Conditions -  °F | °C
As of 6:51 AM on Wednesday 26 Nov 2014 (Local Time) from KCLE Reporting Station
Overcast Overcast  
Wind Chill: -4°   Ceiling: 2200
Heat Index:   Visibility: 10mi
Dew Point: -4°   Wind: 7mph
Humidity: 73%   Direction: 80°E
Pressure: 30.15"   Gusts: NA
Location:  41.46°N, 81.92°W
Report Text: KCLE 261151Z 08006KT 10SM OVC022 00/M04 A3015 RMK AO2 SLP218 T00001044 10000 21006 58008
Loading
Personal Weather Stations






























Interactive Weather Map New forecast layout! Learn more

10-Day Weather Forecast

Advertisements
Track Severe Weather on mobile